sensor_id;sensor_type;location;lat;lon;timestamp;P1;durP1;ratioP1;P2;durP2;ratioP2
20154;SDS011;10238;49.556;10.956;2024-02-21T00:02:12;17.27;;;4.72;;
20154;SDS011;10238;49.556;10.956;2024-02-21T00:05:01;9.35;;;4.07;;
20154;SDS011;10238;49.556;10.956;2024-02-21T00:07:50;11.30;;;5.20;;
20154;SDS011;10238;49.556;10.956;2024-02-21T00:10:37;12.32;;;4.45;;
20154;SDS011;10238;49.556;10.956;2024-02-21T00:13:25;8.85;;;4.32;;
20154;SDS011;10238;49.556;10.956;2024-02-21T00:16:13;14.55;;;4.55;;
20154;SDS011;10238;49.556;10.956;2024-02-21T00:19:02;12.45;;;4.70;;
20154;SDS011;10238;49.556;10.956;2024-02-21T00:21:49;12.32;;;4.25;;
20154;SDS011;10238;49.556;10.956;2024-02-21T00:24:38;12.43;;;4.88;;
20154;SDS011;10238;49.556;10.956;2024-02-21T00:27:25;12.00;;;5.22;;
20154;SDS011;10238;49.556;10.956;2024-02-21T00:30:13;16.80;;;5.47;;
20154;SDS011;10238;49.556;10.956;2024-02-21T00:33:01;10.75;;;4.53;;
20154;SDS011;10238;49.556;10.956;2024-02-21T00:35:50;12.68;;;4.47;;
20154;SDS011;10238;49.556;10.956;2024-02-21T00:38:37;10.50;;;4.72;;
20154;SDS011;10238;49.556;10.956;2024-02-21T00:41:26;13.05;;;4.57;;
20154;SDS011;10238;49.556;10.956;2024-02-21T00:44:14;11.52;;;5.05;;
20154;SDS011;10238;49.556;10.956;2024-02-21T00:47:01;9.40;;;4.35;;
20154;SDS011;10238;49.556;10.956;2024-02-21T00:49:49;11.90;;;5.53;;
20154;SDS011;10238;49.556;10.956;2024-02-21T00:52:36;9.75;;;4.65;;
20154;SDS011;10238;49.556;10.956;2024-02-21T00:55:24;12.48;;;4.47;;
20154;SDS011;10238;49.556;10.956;2024-02-21T00:58:13;13.13;;;4.80;;
20154;SDS011;10238;49.556;10.956;2024-02-21T01:01:01;10.43;;;4.70;;
20154;SDS011;10238;49.556;10.956;2024-02-21T01:03:49;14.80;;;4.80;;
20154;SDS011;10238;49.556;10.956;2024-02-21T01:06:37;12.45;;;4.50;;
20154;SDS011;10238;49.556;10.956;2024-02-21T01:09:24;6.28;;;3.90;;
20154;SDS011;10238;49.556;10.956;2024-02-21T01:12:12;11.32;;;3.97;;
20154;SDS011;10238;49.556;10.956;2024-02-21T01:15:00;11.27;;;4.40;;
20154;SDS011;10238;49.556;10.956;2024-02-21T01:17:48;15.05;;;5.03;;
20154;SDS011;10238;49.556;10.956;2024-02-21T01:20:40;9.45;;;4.47;;
20154;SDS011;10238;49.556;10.956;2024-02-21T01:23:27;12.88;;;4.63;;
20154;SDS011;10238;49.556;10.956;2024-02-21T01:26:14;8.98;;;4.35;;
20154;SDS011;10238;49.556;10.956;2024-02-21T01:29:02;13.80;;;4.20;;
20154;SDS011;10238;49.556;10.956;2024-02-21T01:31:51;11.25;;;4.07;;
20154;SDS011;10238;49.556;10.956;2024-02-21T01:34:39;18.23;;;4.75;;
20154;SDS011;10238;49.556;10.956;2024-02-21T01:37:26;10.20;;;4.45;;
20154;SDS011;10238;49.556;10.956;2024-02-21T01:40:15;8.55;;;4.47;;
20154;SDS011;10238;49.556;10.956;2024-02-21T01:43:03;6.63;;;4.00;;
20154;SDS011;10238;49.556;10.956;2024-02-21T01:45:51;11.77;;;4.22;;
20154;SDS011;10238;49.556;10.956;2024-02-21T01:48:43;9.00;;;3.70;;
20154;SDS011;10238;49.556;10.956;2024-02-21T01:51:32;9.05;;;3.80;;
20154;SDS011;10238;49.556;10.956;2024-02-21T01:54:20;11.68;;;4.00;;
20154;SDS011;10238;49.556;10.956;2024-02-21T01:57:08;12.10;;;5.82;;
20154;SDS011;10238;49.556;10.956;2024-02-21T01:59:56;9.18;;;3.90;;
20154;SDS011;10238;49.556;10.956;2024-02-21T02:02:43;10.82;;;4.40;;
20154;SDS011;10238;49.556;10.956;2024-02-21T02:05:34;8.90;;;4.45;;
20154;SDS011;10238;49.556;10.956;2024-02-21T02:08:22;9.85;;;4.03;;
20154;SDS011;10238;49.556;10.956;2024-02-21T02:11:10;10.85;;;4.13;;
20154;SDS011;10238;49.556;10.956;2024-02-21T02:14:01;7.65;;;3.55;;
20154;SDS011;10238;49.556;10.956;2024-02-21T02:16:49;12.65;;;4.78;;
20154;SDS011;10238;49.556;10.956;2024-02-21T02:19:36;12.73;;;4.38;;
20154;SDS011;10238;49.556;10.956;2024-02-21T02:22:28;13.55;;;4.28;;
20154;SDS011;10238;49.556;10.956;2024-02-21T02:25:20;12.10;;;4.25;;
20154;SDS011;10238;49.556;10.956;2024-02-21T02:28:08;6.35;;;3.78;;
20154;SDS011;10238;49.556;10.956;2024-02-21T02:30:56;8.48;;;4.30;;
20154;SDS011;10238;49.556;10.956;2024-02-21T02:33:43;12.27;;;3.75;;
20154;SDS011;10238;49.556;10.956;2024-02-21T02:36:32;10.73;;;4.22;;
20154;SDS011;10238;49.556;10.956;2024-02-21T02:39:21;9.73;;;3.70;;
20154;SDS011;10238;49.556;10.956;2024-02-21T02:42:10;13.73;;;4.00;;
20154;SDS011;10238;49.556;10.956;2024-02-21T02:44:58;9.18;;;3.92;;
20154;SDS011;10238;49.556;10.956;2024-02-21T02:47:46;14.68;;;3.63;;
20154;SDS011;10238;49.556;10.956;2024-02-21T02:50:34;8.82;;;4.10;;
20154;SDS011;10238;49.556;10.956;2024-02-21T02:53:22;14.07;;;4.20;;
20154;SDS011;10238;49.556;10.956;2024-02-21T02:56:13;8.85;;;4.00;;
20154;SDS011;10238;49.556;10.956;2024-02-21T03:01:51;10.90;;;4.00;;
20154;SDS011;10238;49.556;10.956;2024-02-21T03:04:39;9.07;;;3.42;;
20154;SDS011;10238;49.556;10.956;2024-02-21T03:07:27;14.82;;;4.32;;
20154;SDS011;10238;49.556;10.956;2024-02-21T03:10:14;11.40;;;3.70;;
20154;SDS011;10238;49.556;10.956;2024-02-21T03:13:03;9.20;;;3.85;;
20154;SDS011;10238;49.556;10.956;2024-02-21T03:15:53;10.43;;;4.28;;
20154;SDS011;10238;49.556;10.956;2024-02-21T03:18:40;12.43;;;3.90;;
20154;SDS011;10238;49.556;10.956;2024-02-21T03:21:30;9.48;;;4.35;;
20154;SDS011;10238;49.556;10.956;2024-02-21T03:24:18;9.23;;;3.92;;
20154;SDS011;10238;49.556;10.956;2024-02-21T03:27:07;11.65;;;3.92;;
20154;SDS011;10238;49.556;10.956;2024-02-21T03:29:54;14.10;;;3.75;;
20154;SDS011;10238;49.556;10.956;2024-02-21T03:32:43;9.45;;;3.40;;
20154;SDS011;10238;49.556;10.956;2024-02-21T03:35:31;6.22;;;3.45;;
20154;SDS011;10238;49.556;10.956;2024-02-21T03:38:19;9.40;;;3.35;;
20154;SDS011;10238;49.556;10.956;2024-02-21T03:41:07;7.78;;;3.58;;
20154;SDS011;10238;49.556;10.956;2024-02-21T03:43:54;7.18;;;3.42;;
20154;SDS011;10238;49.556;10.956;2024-02-21T03:46:42;7.68;;;3.40;;
20154;SDS011;10238;49.556;10.956;2024-02-21T03:49:32;15.85;;;4.25;;
20154;SDS011;10238;49.556;10.956;2024-02-21T03:52:19;9.77;;;4.05;;
20154;SDS011;10238;49.556;10.956;2024-02-21T03:55:08;8.05;;;3.75;;
20154;SDS011;10238;49.556;10.956;2024-02-21T03:57:56;9.27;;;4.35;;
20154;SDS011;10238;49.556;10.956;2024-02-21T04:00:44;12.90;;;4.30;;
20154;SDS011;10238;49.556;10.956;2024-02-21T04:03:31;11.65;;;4.45;;
20154;SDS011;10238;49.556;10.956;2024-02-21T04:06:21;8.00;;;3.72;;
20154;SDS011;10238;49.556;10.956;2024-02-21T04:09:08;14.45;;;4.45;;
20154;SDS011;10238;49.556;10.956;2024-02-21T04:11:56;8.23;;;3.15;;
20154;SDS011;10238;49.556;10.956;2024-02-21T04:14:44;10.80;;;4.10;;
20154;SDS011;10238;49.556;10.956;2024-02-21T04:17:32;7.57;;;4.03;;
20154;SDS011;10238;49.556;10.956;2024-02-21T04:20:21;8.43;;;3.67;;
20154;SDS011;10238;49.556;10.956;2024-02-21T04:23:10;11.88;;;3.65;;
20154;SDS011;10238;49.556;10.956;2024-02-21T04:25:58;8.93;;;4.25;;
20154;SDS011;10238;49.556;10.956;2024-02-21T04:28:46;7.18;;;3.42;;
20154;SDS011;10238;49.556;10.956;2024-02-21T04:31:33;7.28;;;3.53;;
20154;SDS011;10238;49.556;10.956;2024-02-21T04:34:22;8.50;;;3.55;;
20154;SDS011;10238;49.556;10.956;2024-02-21T04:37:10;8.50;;;3.88;;
20154;SDS011;10238;49.556;10.956;2024-02-21T04:39:59;9.82;;;3.78;;
20154;SDS011;10238;49.556;10.956;2024-02-21T04:42:48;9.13;;;4.53;;
20154;SDS011;10238;49.556;10.956;2024-02-21T04:45:35;9.95;;;4.25;;
20154;SDS011;10238;49.556;10.956;2024-02-21T04:48:23;11.50;;;3.80;;
20154;SDS011;10238;49.556;10.956;2024-02-21T04:51:11;8.38;;;3.67;;
20154;SDS011;10238;49.556;10.956;2024-02-21T04:53:59;8.70;;;3.53;;
20154;SDS011;10238;49.556;10.956;2024-02-21T04:56:48;10.00;;;4.30;;
20154;SDS011;10238;49.556;10.956;2024-02-21T04:59:38;7.57;;;3.75;;
20154;SDS011;10238;49.556;10.956;2024-02-21T05:02:26;6.43;;;3.42;;
20154;SDS011;10238;49.556;10.956;2024-02-21T05:05:13;7.25;;;3.55;;
20154;SDS011;10238;49.556;10.956;2024-02-21T05:08:02;6.70;;;3.60;;
20154;SDS011;10238;49.556;10.956;2024-02-21T05:10:51;8.20;;;3.80;;
20154;SDS011;10238;49.556;10.956;2024-02-21T05:13:41;8.80;;;4.03;;
20154;SDS011;10238;49.556;10.956;2024-02-21T05:16:29;7.72;;;3.30;;
20154;SDS011;10238;49.556;10.956;2024-02-21T05:19:16;10.45;;;3.55;;
20154;SDS011;10238;49.556;10.956;2024-02-21T05:22:05;9.93;;;3.95;;
20154;SDS011;10238;49.556;10.956;2024-02-21T05:24:53;5.70;;;3.95;;
20154;SDS011;10238;49.556;10.956;2024-02-21T05:27:40;11.07;;;3.60;;
20154;SDS011;10238;49.556;10.956;2024-02-21T05:30:29;9.90;;;3.50;;
20154;SDS011;10238;49.556;10.956;2024-02-21T05:33:17;4.78;;;3.67;;
20154;SDS011;10238;49.556;10.956;2024-02-21T05:36:07;11.73;;;3.80;;
20154;SDS011;10238;49.556;10.956;2024-02-21T05:38:55;11.27;;;3.90;;
20154;SDS011;10238;49.556;10.956;2024-02-21T05:41:46;8.05;;;3.67;;
20154;SDS011;10238;49.556;10.956;2024-02-21T05:44:34;12.50;;;4.40;;
20154;SDS011;10238;49.556;10.956;2024-02-21T05:47:22;8.43;;;3.42;;
20154;SDS011;10238;49.556;10.956;2024-02-21T05:50:12;12.13;;;3.70;;
20154;SDS011;10238;49.556;10.956;2024-02-21T05:53:00;6.72;;;3.72;;
20154;SDS011;10238;49.556;10.956;2024-02-21T05:55:49;7.78;;;3.50;;
20154;SDS011;10238;49.556;10.956;2024-02-21T05:58:37;5.90;;;3.40;;
20154;SDS011;10238;49.556;10.956;2024-02-21T06:01:25;6.93;;;3.38;;
20154;SDS011;10238;49.556;10.956;2024-02-21T06:04:15;4.60;;;3.13;;
20154;SDS011;10238;49.556;10.956;2024-02-21T06:07:02;9.63;;;3.60;;
20154;SDS011;10238;49.556;10.956;2024-02-21T06:09:51;4.78;;;2.90;;
20154;SDS011;10238;49.556;10.956;2024-02-21T06:12:38;8.77;;;3.22;;
20154;SDS011;10238;49.556;10.956;2024-02-21T06:15:26;7.57;;;3.38;;
20154;SDS011;10238;49.556;10.956;2024-02-21T06:18:14;7.97;;;3.10;;
20154;SDS011;10238;49.556;10.956;2024-02-21T06:21:05;3.80;;;2.75;;
20154;SDS011;10238;49.556;10.956;2024-02-21T06:23:53;6.72;;;3.58;;
20154;SDS011;10238;49.556;10.956;2024-02-21T06:26:41;6.38;;;2.92;;
20154;SDS011;10238;49.556;10.956;2024-02-21T06:29:30;9.63;;;3.58;;
20154;SDS011;10238;49.556;10.956;2024-02-21T06:32:17;8.77;;;3.80;;
20154;SDS011;10238;49.556;10.956;2024-02-21T06:35:05;12.32;;;3.55;;
20154;SDS011;10238;49.556;10.956;2024-02-21T06:37:55;5.72;;;3.17;;
20154;SDS011;10238;49.556;10.956;2024-02-21T06:40:42;7.78;;;3.22;;
20154;SDS011;10238;49.556;10.956;2024-02-21T06:43:37;7.45;;;3.22;;
20154;SDS011;10238;49.556;10.956;2024-02-21T06:46:25;7.32;;;3.63;;
20154;SDS011;10238;49.556;10.956;2024-02-21T06:49:15;6.25;;;3.40;;
20154;SDS011;10238;49.556;10.956;2024-02-21T06:52:04;8.30;;;3.90;;
20154;SDS011;10238;49.556;10.956;2024-02-21T06:54:54;7.60;;;3.60;;
20154;SDS011;10238;49.556;10.956;2024-02-21T06:57:41;4.75;;;3.47;;
20154;SDS011;10238;49.556;10.956;2024-02-21T07:00:29;10.90;;;4.13;;
20154;SDS011;10238;49.556;10.956;2024-02-21T07:03:17;13.10;;;5.05;;
20154;SDS011;10238;49.556;10.956;2024-02-21T07:06:05;11.57;;;4.68;;
20154;SDS011;10238;49.556;10.956;2024-02-21T07:08:53;13.25;;;4.47;;
20154;SDS011;10238;49.556;10.956;2024-02-21T07:11:42;11.15;;;4.60;;
20154;SDS011;10238;49.556;10.956;2024-02-21T07:14:31;9.05;;;4.13;;
20154;SDS011;10238;49.556;10.956;2024-02-21T07:17:19;14.35;;;4.47;;
20154;SDS011;10238;49.556;10.956;2024-02-21T07:20:07;10.13;;;4.43;;
20154;SDS011;10238;49.556;10.956;2024-02-21T07:22:56;12.95;;;4.32;;
20154;SDS011;10238;49.556;10.956;2024-02-21T07:25:43;9.38;;;4.40;;
20154;SDS011;10238;49.556;10.956;2024-02-21T07:28:33;11.90;;;4.22;;
20154;SDS011;10238;49.556;10.956;2024-02-21T07:31:21;12.98;;;4.47;;
20154;SDS011;10238;49.556;10.956;2024-02-21T07:34:09;10.70;;;3.83;;
20154;SDS011;10238;49.556;10.956;2024-02-21T07:36:57;9.48;;;4.60;;
20154;SDS011;10238;49.556;10.956;2024-02-21T07:39:45;11.43;;;4.15;;
20154;SDS011;10238;49.556;10.956;2024-02-21T07:42:32;15.05;;;5.15;;
20154;SDS011;10238;49.556;10.956;2024-02-21T07:45:22;11.20;;;4.20;;
20154;SDS011;10238;49.556;10.956;2024-02-21T07:48:10;10.65;;;4.45;;
20154;SDS011;10238;49.556;10.956;2024-02-21T07:50:57;8.85;;;4.38;;
20154;SDS011;10238;49.556;10.956;2024-02-21T07:53:45;10.18;;;4.80;;
20154;SDS011;10238;49.556;10.956;2024-02-21T07:56:34;12.75;;;4.45;;
20154;SDS011;10238;49.556;10.956;2024-02-21T07:59:22;14.10;;;4.75;;
20154;SDS011;10238;49.556;10.956;2024-02-21T08:02:15;17.45;;;5.05;;
20154;SDS011;10238;49.556;10.956;2024-02-21T08:05:03;10.15;;;4.60;;
20154;SDS011;10238;49.556;10.956;2024-02-21T08:07:52;10.73;;;3.83;;
20154;SDS011;10238;49.556;10.956;2024-02-21T08:10:43;9.40;;;3.90;;
20154;SDS011;10238;49.556;10.956;2024-02-21T08:13:31;13.38;;;4.13;;
20154;SDS011;10238;49.556;10.956;2024-02-21T08:16:19;9.95;;;3.92;;
20154;SDS011;10238;49.556;10.956;2024-02-21T08:19:09;8.43;;;3.42;;
20154;SDS011;10238;49.556;10.956;2024-02-21T08:21:57;11.13;;;3.55;;
20154;SDS011;10238;49.556;10.956;2024-02-21T08:24:46;9.93;;;3.63;;
20154;SDS011;10238;49.556;10.956;2024-02-21T08:27:34;10.25;;;4.05;;
20154;SDS011;10238;49.556;10.956;2024-02-21T08:30:21;9.98;;;4.00;;
20154;SDS011;10238;49.556;10.956;2024-02-21T08:33:09;11.40;;;4.05;;
20154;SDS011;10238;49.556;10.956;2024-02-21T08:35:58;10.68;;;3.97;;
20154;SDS011;10238;49.556;10.956;2024-02-21T08:38:46;15.00;;;4.53;;
20154;SDS011;10238;49.556;10.956;2024-02-21T08:41:34;12.60;;;3.78;;
20154;SDS011;10238;49.556;10.956;2024-02-21T08:44:41;10.57;;;3.20;;
20154;SDS011;10238;49.556;10.956;2024-02-21T08:47:29;9.90;;;4.00;;
20154;SDS011;10238;49.556;10.956;2024-02-21T08:50:17;8.25;;;3.47;;
20154;SDS011;10238;49.556;10.956;2024-02-21T08:53:15;8.40;;;3.33;;
20154;SDS011;10238;49.556;10.956;2024-02-21T08:56:03;10.52;;;3.70;;
20154;SDS011;10238;49.556;10.956;2024-02-21T08:58:53;11.32;;;3.35;;
20154;SDS011;10238;49.556;10.956;2024-02-21T09:01:41;13.82;;;3.58;;
20154;SDS011;10238;49.556;10.956;2024-02-21T09:04:29;9.13;;;3.20;;
20154;SDS011;10238;49.556;10.956;2024-02-21T09:07:18;8.70;;;2.95;;
20154;SDS011;10238;49.556;10.956;2024-02-21T09:10:08;8.13;;;2.92;;
20154;SDS011;10238;49.556;10.956;2024-02-21T09:12:56;8.30;;;3.30;;
20154;SDS011;10238;49.556;10.956;2024-02-21T09:15:44;14.32;;;3.97;;
20154;SDS011;10238;49.556;10.956;2024-02-21T09:18:32;11.18;;;3.40;;
20154;SDS011;10238;49.556;10.956;2024-02-21T09:21:19;5.32;;;2.83;;
20154;SDS011;10238;49.556;10.956;2024-02-21T09:24:07;10.50;;;3.40;;
20154;SDS011;10238;49.556;10.956;2024-02-21T09:26:56;6.50;;;3.40;;
20154;SDS011;10238;49.556;10.956;2024-02-21T09:29:44;6.25;;;2.60;;
20154;SDS011;10238;49.556;10.956;2024-02-21T09:32:32;9.30;;;2.95;;
20154;SDS011;10238;49.556;10.956;2024-02-21T09:35:19;9.18;;;3.55;;
20154;SDS011;10238;49.556;10.956;2024-02-21T09:38:09;6.25;;;2.50;;
20154;SDS011;10238;49.556;10.956;2024-02-21T09:40:58;6.38;;;3.00;;
20154;SDS011;10238;49.556;10.956;2024-02-21T09:43:53;7.55;;;2.80;;
20154;SDS011;10238;49.556;10.956;2024-02-21T09:46:43;8.63;;;3.13;;
20154;SDS011;10238;49.556;10.956;2024-02-21T09:49:43;7.53;;;2.80;;
20154;SDS011;10238;49.556;10.956;2024-02-21T09:52:32;8.77;;;3.08;;
20154;SDS011;10238;49.556;10.956;2024-02-21T09:55:23;6.20;;;2.95;;
20154;SDS011;10238;49.556;10.956;2024-02-21T09:58:13;11.73;;;3.30;;
20154;SDS011;10238;49.556;10.956;2024-02-21T10:01:03;6.82;;;2.55;;
20154;SDS011;10238;49.556;10.956;2024-02-21T10:04:10;8.52;;;3.22;;
20154;SDS011;10238;49.556;10.956;2024-02-21T10:06:58;6.68;;;2.60;;
20154;SDS011;10238;49.556;10.956;2024-02-21T10:09:46;7.32;;;3.25;;
20154;SDS011;10238;49.556;10.956;2024-02-21T10:12:34;7.70;;;2.95;;
20154;SDS011;10238;49.556;10.956;2024-02-21T10:15:22;8.70;;;2.90;;
20154;SDS011;10238;49.556;10.956;2024-02-21T10:18:12;6.53;;;2.85;;
20154;SDS011;10238;49.556;10.956;2024-02-21T10:21:05;12.23;;;2.97;;
20154;SDS011;10238;49.556;10.956;2024-02-21T10:23:54;10.50;;;3.15;;
20154;SDS011;10238;49.556;10.956;2024-02-21T10:26:41;8.52;;;2.78;;
20154;SDS011;10238;49.556;10.956;2024-02-21T10:29:29;11.52;;;2.80;;
20154;SDS011;10238;49.556;10.956;2024-02-21T10:32:17;12.70;;;3.10;;
20154;SDS011;10238;49.556;10.956;2024-02-21T10:35:06;8.68;;;3.03;;
20154;SDS011;10238;49.556;10.956;2024-02-21T10:37:56;6.10;;;3.13;;
20154;SDS011;10238;49.556;10.956;2024-02-21T10:40:44;7.28;;;3.00;;
20154;SDS011;10238;49.556;10.956;2024-02-21T10:43:37;14.70;;;4.32;;
20154;SDS011;10238;49.556;10.956;2024-02-21T10:46:27;10.13;;;4.55;;
20154;SDS011;10238;49.556;10.956;2024-02-21T10:49:19;8.75;;;2.92;;
20154;SDS011;10238;49.556;10.956;2024-02-21T10:52:14;6.88;;;2.55;;
20154;SDS011;10238;49.556;10.956;2024-02-21T10:55:19;11.52;;;3.28;;
20154;SDS011;10238;49.556;10.956;2024-02-21T10:58:16;6.70;;;2.70;;
20154;SDS011;10238;49.556;10.956;2024-02-21T11:01:05;6.40;;;2.50;;
20154;SDS011;10238;49.556;10.956;2024-02-21T11:03:55;7.00;;;2.97;;
20154;SDS011;10238;49.556;10.956;2024-02-21T11:06:45;8.48;;;2.55;;
20154;SDS011;10238;49.556;10.956;2024-02-21T11:09:38;4.65;;;2.20;;
20154;SDS011;10238;49.556;10.956;2024-02-21T11:12:26;12.02;;;2.72;;
20154;SDS011;10238;49.556;10.956;2024-02-21T11:15:14;5.60;;;2.38;;
20154;SDS011;10238;49.556;10.956;2024-02-21T11:18:02;7.32;;;2.78;;
20154;SDS011;10238;49.556;10.956;2024-02-21T11:20:50;14.02;;;2.92;;
20154;SDS011;10238;49.556;10.956;2024-02-21T11:23:38;7.90;;;2.60;;
20154;SDS011;10238;49.556;10.956;2024-02-21T11:26:28;5.40;;;2.90;;
20154;SDS011;10238;49.556;10.956;2024-02-21T11:29:22;7.25;;;2.58;;
20154;SDS011;10238;49.556;10.956;2024-02-21T11:32:11;6.85;;;2.25;;
20154;SDS011;10238;49.556;10.956;2024-02-21T11:35:02;7.95;;;2.30;;
20154;SDS011;10238;49.556;10.956;2024-02-21T11:37:54;6.17;;;2.17;;
20154;SDS011;10238;49.556;10.956;2024-02-21T11:40:43;5.45;;;2.38;;
20154;SDS011;10238;49.556;10.956;2024-02-21T11:43:34;4.82;;;2.20;;
20154;SDS011;10238;49.556;10.956;2024-02-21T11:46:22;6.68;;;2.72;;
20154;SDS011;10238;49.556;10.956;2024-02-21T11:49:10;5.45;;;2.20;;
20154;SDS011;10238;49.556;10.956;2024-02-21T11:51:58;10.48;;;2.45;;
20154;SDS011;10238;49.556;10.956;2024-02-21T11:54:49;10.30;;;2.90;;
20154;SDS011;10238;49.556;10.956;2024-02-21T11:57:37;7.85;;;2.67;;
20154;SDS011;10238;49.556;10.956;2024-02-21T12:00:30;8.63;;;2.83;;
20154;SDS011;10238;49.556;10.956;2024-02-21T12:03:18;6.80;;;2.65;;
20154;SDS011;10238;49.556;10.956;2024-02-21T12:06:06;9.32;;;2.67;;
20154;SDS011;10238;49.556;10.956;2024-02-21T12:08:57;7.22;;;2.42;;
20154;SDS011;10238;49.556;10.956;2024-02-21T12:11:45;6.35;;;2.17;;
20154;SDS011;10238;49.556;10.956;2024-02-21T12:14:43;9.07;;;3.42;;
20154;SDS011;10238;49.556;10.956;2024-02-21T12:17:33;5.20;;;2.55;;
20154;SDS011;10238;49.556;10.956;2024-02-21T12:20:21;6.00;;;2.10;;
20154;SDS011;10238;49.556;10.956;2024-02-21T12:23:10;6.57;;;2.90;;
20154;SDS011;10238;49.556;10.956;2024-02-21T12:25:58;4.75;;;2.00;;
20154;SDS011;10238;49.556;10.956;2024-02-21T12:28:46;5.10;;;1.95;;
20154;SDS011;10238;49.556;10.956;2024-02-21T12:31:35;5.82;;;2.20;;
20154;SDS011;10238;49.556;10.956;2024-02-21T12:34:24;7.03;;;2.20;;
20154;SDS011;10238;49.556;10.956;2024-02-21T12:37:28;5.65;;;2.00;;
20154;SDS011;10238;49.556;10.956;2024-02-21T12:40:16;3.55;;;2.00;;
20154;SDS011;10238;49.556;10.956;2024-02-21T12:43:03;6.20;;;2.28;;
20154;SDS011;10238;49.556;10.956;2024-02-21T12:45:51;6.68;;;2.20;;
20154;SDS011;10238;49.556;10.956;2024-02-21T12:48:39;9.63;;;2.30;;
20154;SDS011;10238;49.556;10.956;2024-02-21T12:51:28;5.97;;;1.88;;
20154;SDS011;10238;49.556;10.956;2024-02-21T12:54:16;7.18;;;2.03;;
20154;SDS011;10238;49.556;10.956;2024-02-21T12:57:05;6.88;;;1.90;;
20154;SDS011;10238;49.556;10.956;2024-02-21T12:59:53;8.95;;;2.63;;
20154;SDS011;10238;49.556;10.956;2024-02-21T13:02:41;4.35;;;1.92;;
20154;SDS011;10238;49.556;10.956;2024-02-21T13:05:28;4.72;;;2.03;;
20154;SDS011;10238;49.556;10.956;2024-02-21T13:08:19;8.30;;;1.90;;
20154;SDS011;10238;49.556;10.956;2024-02-21T13:11:08;3.58;;;1.80;;
20154;SDS011;10238;49.556;10.956;2024-02-21T13:13:57;6.30;;;1.95;;
20154;SDS011;10238;49.556;10.956;2024-02-21T13:16:45;6.75;;;2.35;;
20154;SDS011;10238;49.556;10.956;2024-02-21T13:19:33;6.68;;;2.22;;
20154;SDS011;10238;49.556;10.956;2024-02-21T13:22:21;6.28;;;1.90;;
20154;SDS011;10238;49.556;10.956;2024-02-21T13:25:12;5.55;;;2.03;;
20154;SDS011;10238;49.556;10.956;2024-02-21T13:28:04;4.63;;;1.70;;
20154;SDS011;10238;49.556;10.956;2024-02-21T13:30:53;4.60;;;2.65;;
20154;SDS011;10238;49.556;10.956;2024-02-21T13:33:41;3.80;;;1.90;;
20154;SDS011;10238;49.556;10.956;2024-02-21T13:36:30;5.53;;;2.03;;
20154;SDS011;10238;49.556;10.956;2024-02-21T13:39:18;6.72;;;3.90;;
20154;SDS011;10238;49.556;10.956;2024-02-21T13:42:07;5.00;;;2.25;;
20154;SDS011;10238;49.556;10.956;2024-02-21T13:44:55;6.43;;;2.47;;
20154;SDS011;10238;49.556;10.956;2024-02-21T13:47:42;6.15;;;3.33;;
20154;SDS011;10238;49.556;10.956;2024-02-21T13:50:30;2.63;;;1.70;;
20154;SDS011;10238;49.556;10.956;2024-02-21T13:53:20;5.13;;;3.38;;
20154;SDS011;10238;49.556;10.956;2024-02-21T13:56:08;4.68;;;2.45;;
20154;SDS011;10238;49.556;10.956;2024-02-21T13:58:58;6.40;;;1.88;;
20154;SDS011;10238;49.556;10.956;2024-02-21T14:01:47;5.03;;;2.10;;
20154;SDS011;10238;49.556;10.956;2024-02-21T14:04:35;9.57;;;3.47;;
20154;SDS011;10238;49.556;10.956;2024-02-21T14:07:23;7.53;;;3.25;;
20154;SDS011;10238;49.556;10.956;2024-02-21T14:10:10;4.95;;;1.85;;
20154;SDS011;10238;49.556;10.956;2024-02-21T14:12:58;2.70;;;1.40;;
20154;SDS011;10238;49.556;10.956;2024-02-21T14:15:47;5.97;;;2.45;;
20154;SDS011;10238;49.556;10.956;2024-02-21T14:18:36;2.35;;;2.15;;
20154;SDS011;10238;49.556;10.956;2024-02-21T14:21:24;3.58;;;1.30;;
20154;SDS011;10238;49.556;10.956;2024-02-21T14:24:12;2.58;;;1.63;;
20154;SDS011;10238;49.556;10.956;2024-02-21T14:26:59;4.65;;;3.13;;
20154;SDS011;10238;49.556;10.956;2024-02-21T14:29:49;5.30;;;2.05;;
20154;SDS011;10238;49.556;10.956;2024-02-21T14:32:38;6.72;;;1.63;;
20154;SDS011;10238;49.556;10.956;2024-02-21T14:35:31;5.90;;;2.60;;
20154;SDS011;10238;49.556;10.956;2024-02-21T14:38:22;3.13;;;1.90;;
20154;SDS011;10238;49.556;10.956;2024-02-21T14:41:10;5.43;;;1.92;;
20154;SDS011;10238;49.556;10.956;2024-02-21T14:43:58;3.08;;;1.55;;
20154;SDS011;10238;49.556;10.956;2024-02-21T14:46:49;5.68;;;1.65;;
20154;SDS011;10238;49.556;10.956;2024-02-21T14:49:38;4.43;;;2.33;;
20154;SDS011;10238;49.556;10.956;2024-02-21T14:52:26;6.80;;;1.95;;
20154;SDS011;10238;49.556;10.956;2024-02-21T14:55:16;3.35;;;2.03;;
20154;SDS011;10238;49.556;10.956;2024-02-21T14:58:05;3.60;;;1.90;;
20154;SDS011;10238;49.556;10.956;2024-02-21T15:00:53;3.60;;;1.60;;
20154;SDS011;10238;49.556;10.956;2024-02-21T15:03:41;5.03;;;1.67;;
20154;SDS011;10238;49.556;10.956;2024-02-21T15:06:30;6.05;;;1.80;;
20154;SDS011;10238;49.556;10.956;2024-02-21T15:09:19;2.40;;;1.75;;
20154;SDS011;10238;49.556;10.956;2024-02-21T15:12:07;4.93;;;2.13;;
20154;SDS011;10238;49.556;10.956;2024-02-21T15:14:55;3.28;;;1.63;;
20154;SDS011;10238;49.556;10.956;2024-02-21T15:17:42;3.42;;;1.75;;
20154;SDS011;10238;49.556;10.956;2024-02-21T15:20:30;7.30;;;1.90;;
20154;SDS011;10238;49.556;10.956;2024-02-21T15:23:19;3.75;;;2.08;;
20154;SDS011;10238;49.556;10.956;2024-02-21T15:26:09;5.47;;;1.80;;
20154;SDS011;10238;49.556;10.956;2024-02-21T15:28:57;4.10;;;1.60;;
20154;SDS011;10238;49.556;10.956;2024-02-21T15:31:45;3.30;;;1.80;;
20154;SDS011;10238;49.556;10.956;2024-02-21T15:34:33;3.38;;;1.83;;
20154;SDS011;10238;49.556;10.956;2024-02-21T15:37:21;3.10;;;1.55;;
20154;SDS011;10238;49.556;10.956;2024-02-21T15:40:12;2.13;;;1.38;;
20154;SDS011;10238;49.556;10.956;2024-02-21T15:43:00;3.80;;;1.75;;
20154;SDS011;10238;49.556;10.956;2024-02-21T15:45:48;4.00;;;1.52;;
20154;SDS011;10238;49.556;10.956;2024-02-21T15:48:36;3.25;;;1.67;;
20154;SDS011;10238;49.556;10.956;2024-02-21T15:51:24;3.95;;;1.90;;
20154;SDS011;10238;49.556;10.956;2024-02-21T15:54:11;4.28;;;1.90;;
20154;SDS011;10238;49.556;10.956;2024-02-21T15:57:09;3.75;;;1.90;;
20154;SDS011;10238;49.556;10.956;2024-02-21T15:59:57;5.00;;;1.95;;
20154;SDS011;10238;49.556;10.956;2024-02-21T16:02:45;3.00;;;1.83;;
20154;SDS011;10238;49.556;10.956;2024-02-21T16:05:33;3.10;;;1.90;;
20154;SDS011;10238;49.556;10.956;2024-02-21T16:08:21;3.88;;;1.67;;
20154;SDS011;10238;49.556;10.956;2024-02-21T16:11:13;2.55;;;1.40;;
20154;SDS011;10238;49.556;10.956;2024-02-21T16:14:05;5.30;;;2.50;;
20154;SDS011;10238;49.556;10.956;2024-02-21T16:16:53;3.28;;;2.10;;
20154;SDS011;10238;49.556;10.956;2024-02-21T16:19:43;5.40;;;2.92;;
20154;SDS011;10238;49.556;10.956;2024-02-21T16:22:31;5.85;;;3.25;;
20154;SDS011;10238;49.556;10.956;2024-02-21T16:25:19;5.07;;;2.60;;
20154;SDS011;10238;49.556;10.956;2024-02-21T16:28:06;4.82;;;2.40;;
20154;SDS011;10238;49.556;10.956;2024-02-21T16:30:55;4.18;;;2.10;;
20154;SDS011;10238;49.556;10.956;2024-02-21T16:33:44;3.95;;;2.28;;
20154;SDS011;10238;49.556;10.956;2024-02-21T16:36:32;4.15;;;2.22;;
20154;SDS011;10238;49.556;10.956;2024-02-21T16:39:19;4.95;;;2.53;;
20154;SDS011;10238;49.556;10.956;2024-02-21T16:42:07;5.57;;;2.70;;